sensor_id;sensor_type;location;lat;lon;timestamp;temperature;humidity
34522;DHT22;25561;48.888;8.736;2022-10-10T05:31:28;10.90;99.90
34522;DHT22;25561;48.888;8.736;2022-10-10T05:34:32;10.80;99.90
34522;DHT22;25561;48.888;8.736;2022-10-10T05:37:34;10.70;99.90
34522;DHT22;25561;48.888;8.736;2022-10-10T05:40:39;10.80;99.90
34522;DHT22;25561;48.888;8.736;2022-10-10T05:43:41;10.90;99.90
34522;DHT22;25561;48.888;8.736;2022-10-10T05:46:43;11.00;99.90
34522;DHT22;25561;48.888;8.736;2022-10-10T05:49:45;11.10;99.90
34522;DHT22;25561;48.888;8.736;2022-10-10T05:52:46;11.20;99.90
34522;DHT22;25561;48.888;8.736;2022-10-10T05:55:49;11.20;99.90
34522;DHT22;25561;48.888;8.736;2022-10-10T05:58:52;11.30;99.90
34522;DHT22;25561;48.888;8.736;2022-10-10T06:01:55;11.10;99.90
34522;DHT22;25561;48.888;8.736;2022-10-10T06:04:57;11.20;99.90
34522;DHT22;25561;48.888;8.736;2022-10-10T06:07:59;11.40;99.90
34522;DHT22;25561;48.888;8.736;2022-10-10T06:11:11;11.60;99.90
34522;DHT22;25561;48.888;8.736;2022-10-10T06:49:22;11.10;99.90
34522;DHT22;25561;48.888;8.736;2022-10-10T06:52:25;11.50;99.90
34522;DHT22;25561;48.888;8.736;2022-10-10T06:55:27;12.00;99.90
34522;DHT22;25561;48.888;8.736;2022-10-10T06:58:29;12.60;99.90
34522;DHT22;25561;48.888;8.736;2022-10-10T07:01:32;13.20;99.90
34522;DHT22;25561;48.888;8.736;2022-10-10T07:04:34;13.70;99.90
34522;DHT22;25561;48.888;8.736;2022-10-10T07:07:36;14.10;99.90
34522;DHT22;25561;48.888;8.736;2022-10-10T07:10:38;14.30;99.90
34522;DHT22;25561;48.888;8.736;2022-10-10T07:13:41;14.50;99.90
34522;DHT22;25561;48.888;8.736;2022-10-10T07:16:43;14.80;99.90
34522;DHT22;25561;48.888;8.736;2022-10-10T07:19:49;15.00;99.90
34522;DHT22;25561;48.888;8.736;2022-10-10T07:22:51;14.80;99.90
34522;DHT22;25561;48.888;8.736;2022-10-10T07:25:59;14.70;99.90
34522;DHT22;25561;48.888;8.736;2022-10-10T07:29:02;14.70;99.90
34522;DHT22;25561;48.888;8.736;2022-10-10T07:32:04;14.80;99.90
34522;DHT22;25561;48.888;8.736;2022-10-10T07:35:06;15.10;99.90
34522;DHT22;25561;48.888;8.736;2022-10-10T07:38:10;15.00;99.90
34522;DHT22;25561;48.888;8.736;2022-10-10T07:41:12;15.20;99.90
34522;DHT22;25561;48.888;8.736;2022-10-10T07:44:15;15.70;99.90
34522;DHT22;25561;48.888;8.736;2022-10-10T07:47:19;16.60;99.90
34522;DHT22;25561;48.888;8.736;2022-10-10T07:50:20;17.30;99.90
34522;DHT22;25561;48.888;8.736;2022-10-10T07:53:25;18.30;99.90
34522;DHT22;25561;48.888;8.736;2022-10-10T07:56:27;17.50;99.90
34522;DHT22;25561;48.888;8.736;2022-10-10T07:59:30;17.50;99.90
34522;DHT22;25561;48.888;8.736;2022-10-10T08:02:33;18.60;99.90
34522;DHT22;25561;48.888;8.736;2022-10-10T08:05:41;20.30;99.90
34522;DHT22;25561;48.888;8.736;2022-10-10T08:08:46;22.70;99.90
34522;DHT22;25561;48.888;8.736;2022-10-10T08:11:52;24.80;99.90
34522;DHT22;25561;48.888;8.736;2022-10-10T08:14:54;25.10;99.90
34522;DHT22;25561;48.888;8.736;2022-10-10T08:17:56;25.00;99.90
34522;DHT22;25561;48.888;8.736;2022-10-10T08:21:00;25.20;99.90
34522;DHT22;25561;48.888;8.736;2022-10-10T08:24:02;25.60;99.90
34522;DHT22;25561;48.888;8.736;2022-10-10T08:27:05;25.40;99.90
34522;DHT22;25561;48.888;8.736;2022-10-10T08:30:07;25.90;99.90
34522;DHT22;25561;48.888;8.736;2022-10-10T08:33:10;25.00;99.90
34522;DHT22;25561;48.888;8.736;2022-10-10T08:36:16;23.80;99.90
34522;DHT22;25561;48.888;8.736;2022-10-10T08:39:19;23.20;99.90
34522;DHT22;25561;48.888;8.736;2022-10-10T08:42:35;21.80;99.90
34522;DHT22;25561;48.888;8.736;2022-10-10T08:45:47;21.40;99.90
34522;DHT22;25561;48.888;8.736;2022-10-10T08:48:51;23.00;99.90
34522;DHT22;25561;48.888;8.736;2022-10-10T08:52:02;23.60;99.90
34522;DHT22;25561;48.888;8.736;2022-10-10T08:55:30;24.20;99.90
34522;DHT22;25561;48.888;8.736;2022-10-10T08:58:41;25.10;99.90
34522;DHT22;25561;48.888;8.736;2022-10-10T09:02:03;25.60;99.90
34522;DHT22;25561;48.888;8.736;2022-10-10T09:05:36;25.90;99.90
34522;DHT22;25561;48.888;8.736;2022-10-10T09:08:56;26.30;99.90
34522;DHT22;25561;48.888;8.736;2022-10-10T09:16:00;26.30;99.90
34522;DHT22;25561;48.888;8.736;2022-10-10T09:19:52;25.80;99.90
34522;DHT22;25561;48.888;8.736;2022-10-10T09:22:50;26.70;99.90
34522;DHT22;25561;48.888;8.736;2022-10-10T09:26:01;27.00;99.90
34522;DHT22;25561;48.888;8.736;2022-10-10T09:29:26;28.00;99.90
34522;DHT22;25561;48.888;8.736;2022-10-10T09:32:38;29.50;99.90
34522;DHT22;25561;48.888;8.736;2022-10-10T09:35:43;28.70;99.90
34522;DHT22;25561;48.888;8.736;2022-10-10T09:38:50;28.60;99.90
34522;DHT22;25561;48.888;8.736;2022-10-10T09:42:00;27.80;99.90
34522;DHT22;25561;48.888;8.736;2022-10-10T09:45:14;27.10;99.90
34522;DHT22;25561;48.888;8.736;2022-10-10T09:48:32;26.80;99.90
34522;DHT22;25561;48.888;8.736;2022-10-10T09:51:37;26.10;99.90
34522;DHT22;25561;48.888;8.736;2022-10-10T09:54:40;26.50;99.90
34522;DHT22;25561;48.888;8.736;2022-10-10T09:57:43;25.80;99.90
34522;DHT22;25561;48.888;8.736;2022-10-10T10:00:45;26.20;99.90
34522;DHT22;25561;48.888;8.736;2022-10-10T10:07:33;26.80;99.90
34522;DHT22;25561;48.888;8.736;2022-10-10T10:10:37;27.30;99.90
34522;DHT22;25561;48.888;8.736;2022-10-10T10:13:40;27.60;99.90
34522;DHT22;25561;48.888;8.736;2022-10-10T10:16:44;27.00;99.90
34522;DHT22;25561;48.888;8.736;2022-10-10T10:19:47;26.50;99.90
34522;DHT22;25561;48.888;8.736;2022-10-10T10:22:50;26.60;99.90
34522;DHT22;25561;48.888;8.736;2022-10-10T10:26:00;27.60;99.90
34522;DHT22;25561;48.888;8.736;2022-10-10T10:29:03;27.50;99.90
34522;DHT22;25561;48.888;8.736;2022-10-10T10:32:23;28.30;99.90
34522;DHT22;25561;48.888;8.736;2022-10-10T10:35:36;28.40;99.90
34522;DHT22;25561;48.888;8.736;2022-10-10T10:38:45;28.00;99.90
34522;DHT22;25561;48.888;8.736;2022-10-10T10:42:17;28.70;99.90
34522;DHT22;25561;48.888;8.736;2022-10-10T10:45:51;28.10;99.90
34522;DHT22;25561;48.888;8.736;2022-10-10T10:49:06;27.60;99.90
34522;DHT22;25561;48.888;8.736;2022-10-10T10:52:25;27.80;99.90
34522;DHT22;25561;48.888;8.736;2022-10-10T10:55:42;27.50;99.90
34522;DHT22;25561;48.888;8.736;2022-10-10T11:02:38;26.50;99.90
34522;DHT22;25561;48.888;8.736;2022-10-10T11:06:11;26.90;99.90
34522;DHT22;25561;48.888;8.736;2022-10-10T11:09:38;27.40;99.90
34522;DHT22;25561;48.888;8.736;2022-10-10T11:13:11;27.20;99.90
34522;DHT22;25561;48.888;8.736;2022-10-10T11:16:26;27.80;99.90
34522;DHT22;25561;48.888;8.736;2022-10-10T11:19:57;27.50;99.90
34522;DHT22;25561;48.888;8.736;2022-10-10T11:23:24;26.90;99.90
34522;DHT22;25561;48.888;8.736;2022-10-10T11:26:36;27.10;99.90
34522;DHT22;25561;48.888;8.736;2022-10-10T11:29:51;27.10;99.90
34522;DHT22;25561;48.888;8.736;2022-10-10T11:33:01;26.80;99.90
34522;DHT22;25561;48.888;8.736;2022-10-10T11:36:13;26.00;99.90
34522;DHT22;25561;48.888;8.736;2022-10-10T11:39:22;24.20;99.90
34522;DHT22;25561;48.888;8.736;2022-10-10T11:42:30;23.10;99.90
34522;DHT22;25561;48.888;8.736;2022-10-10T11:45:42;23.20;99.90
34522;DHT22;25561;48.888;8.736;2022-10-10T11:48:55;22.80;99.90
34522;DHT22;25561;48.888;8.736;2022-10-10T11:52:11;22.60;99.90
34522;DHT22;25561;48.888;8.736;2022-10-10T11:58:56;22.80;99.90
34522;DHT22;25561;48.888;8.736;2022-10-10T12:02:08;23.00;99.90
34522;DHT22;25561;48.888;8.736;2022-10-10T12:05:31;23.00;99.90
34522;DHT22;25561;48.888;8.736;2022-10-10T12:08:43;23.00;99.90
34522;DHT22;25561;48.888;8.736;2022-10-10T12:11:52;23.10;99.90
34522;DHT22;25561;48.888;8.736;2022-10-10T12:15:00;23.00;99.90
34522;DHT22;25561;48.888;8.736;2022-10-10T12:18:03;23.10;99.90
34522;DHT22;25561;48.888;8.736;2022-10-10T12:21:10;22.80;99.90
34522;DHT22;25561;48.888;8.736;2022-10-10T12:24:13;22.80;99.90
34522;DHT22;25561;48.888;8.736;2022-10-10T12:34:04;22.50;99.90
34522;DHT22;25561;48.888;8.736;2022-10-10T12:37:27;22.30;99.90
34522;DHT22;25561;48.888;8.736;2022-10-10T12:40:31;21.60;99.90
34522;DHT22;25561;48.888;8.736;2022-10-10T12:43:40;21.70;99.90
34522;DHT22;25561;48.888;8.736;2022-10-10T12:46:43;21.70;99.90
34522;DHT22;25561;48.888;8.736;2022-10-10T12:49:51;22.00;99.90
34522;DHT22;25561;48.888;8.736;2022-10-10T12:52:56;22.00;99.90
34522;DHT22;25561;48.888;8.736;2022-10-10T12:56:00;21.90;99.90
34522;DHT22;25561;48.888;8.736;2022-10-10T12:59:05;21.80;99.90
34522;DHT22;25561;48.888;8.736;2022-10-10T13:02:27;21.70;99.90
34522;DHT22;25561;48.888;8.736;2022-10-10T13:05:31;21.70;99.90
34522;DHT22;25561;48.888;8.736;2022-10-10T13:08:35;21.90;99.90
34522;DHT22;25561;48.888;8.736;2022-10-10T13:12:00;22.10;99.90
34522;DHT22;25561;48.888;8.736;2022-10-10T13:15:17;22.10;99.90
34522;DHT22;25561;48.888;8.736;2022-10-10T13:18:47;22.20;99.90
34522;DHT22;25561;48.888;8.736;2022-10-10T13:21:51;22.00;99.90
34522;DHT22;25561;48.888;8.736;2022-10-10T13:24:54;21.80;99.90
34522;DHT22;25561;48.888;8.736;2022-10-10T13:27:56;21.90;99.90
34522;DHT22;25561;48.888;8.736;2022-10-10T13:30:58;21.90;99.90
34522;DHT22;25561;48.888;8.736;2022-10-10T13:34:06;21.80;99.90
34522;DHT22;25561;48.888;8.736;2022-10-10T13:37:13;21.70;99.90
34522;DHT22;25561;48.888;8.736;2022-10-10T13:40:17;21.60;99.90
34522;DHT22;25561;48.888;8.736;2022-10-10T13:43:19;21.50;99.90
34522;DHT22;25561;48.888;8.736;2022-10-10T13:46:31;21.30;99.90
34522;DHT22;25561;48.888;8.736;2022-10-10T13:49:33;21.20;99.90
34522;DHT22;25561;48.888;8.736;2022-10-10T13:52:35;21.10;99.90
34522;DHT22;25561;48.888;8.736;2022-10-10T13:55:37;21.20;99.90
34522;DHT22;25561;48.888;8.736;2022-10-10T13:59:22;21.20;99.90
34522;DHT22;25561;48.888;8.736;2022-10-10T14:02:12;21.40;99.90
34522;DHT22;25561;48.888;8.736;2022-10-10T14:05:28;21.70;99.90
34522;DHT22;25561;48.888;8.736;2022-10-10T14:08:32;22.00;99.90
34522;DHT22;25561;48.888;8.736;2022-10-10T14:11:34;22.00;99.90
34522;DHT22;25561;48.888;8.736;2022-10-10T14:14:46;22.00;99.90
34522;DHT22;25561;48.888;8.736;2022-10-10T14:17:48;22.20;99.90
34522;DHT22;25561;48.888;8.736;2022-10-10T14:20:51;22.20;99.90
34522;DHT22;25561;48.888;8.736;2022-10-10T14:23:56;22.30;99.90
34522;DHT22;25561;48.888;8.736;2022-10-10T14:30:20;22.40;99.90
34522;DHT22;25561;48.888;8.736;2022-10-10T14:33:24;22.40;99.90
34522;DHT22;25561;48.888;8.736;2022-10-10T14:36:26;22.40;99.90
34522;DHT22;25561;48.888;8.736;2022-10-10T14:39:29;22.10;99.90
34522;DHT22;25561;48.888;8.736;2022-10-10T14:42:31;22.00;99.90
34522;DHT22;25561;48.888;8.736;2022-10-10T14:45:33;22.20;99.90
34522;DHT22;25561;48.888;8.736;2022-10-10T14:48:35;22.20;99.90
34522;DHT22;25561;48.888;8.736;2022-10-10T14:51:37;22.30;99.90
34522;DHT22;25561;48.888;8.736;2022-10-10T14:54:39;22.40;99.90
34522;DHT22;25561;48.888;8.736;2022-10-10T14:57:41;22.30;99.90
34522;DHT22;25561;48.888;8.736;2022-10-10T15:00:43;22.20;99.90
34522;DHT22;25561;48.888;8.736;2022-10-10T15:03:45;22.20;99.90
34522;DHT22;25561;48.888;8.736;2022-10-10T15:06:47;22.40;99.90
34522;DHT22;25561;48.888;8.736;2022-10-10T15:10:10;22.50;99.90
34522;DHT22;25561;48.888;8.736;2022-10-10T15:13:32;22.50;99.90
34522;DHT22;25561;48.888;8.736;2022-10-10T15:16:34;22.50;99.90
34522;DHT22;25561;48.888;8.736;2022-10-10T15:19:36;22.20;99.90
34522;DHT22;25561;48.888;8.736;2022-10-10T15:22:38;22.20;99.90
34522;DHT22;25561;48.888;8.736;2022-10-10T15:25:41;22.10;99.90
34522;DHT22;25561;48.888;8.736;2022-10-10T15:28:44;21.90;99.90
34522;DHT22;25561;48.888;8.736;2022-10-10T15:31:48;21.90;99.90
34522;DHT22;25561;48.888;8.736;2022-10-10T15:34:51;21.50;99.90
34522;DHT22;25561;48.888;8.736;2022-10-10T15:37:52;21.50;99.90
34522;DHT22;25561;48.888;8.736;2022-10-10T15:41:02;21.50;99.90
34522;DHT22;25561;48.888;8.736;2022-10-10T15:44:04;21.40;99.90
34522;DHT22;25561;48.888;8.736;2022-10-10T15:47:14;21.40;99.90
34522;DHT22;25561;48.888;8.736;2022-10-10T15:50:16;21.20;99.90
34522;DHT22;25561;48.888;8.736;2022-10-10T15:53:18;21.20;99.90
34522;DHT22;25561;48.888;8.736;2022-10-10T15:56:20;21.20;99.90
34522;DHT22;25561;48.888;8.736;2022-10-10T15:59:21;21.20;99.90
